createdAt,value
2022-12-09T00:00:37.012Z,43.90
2022-12-09T00:03:11.360Z,43.90
2022-12-09T00:05:46.979Z,43.90
2022-12-09T00:08:21.659Z,43.70
2022-12-09T00:10:57.514Z,43.80
2022-12-09T00:13:31.653Z,43.80
2022-12-09T00:16:08.204Z,43.90
2022-12-09T00:18:43.796Z,43.80
2022-12-09T00:21:21.700Z,43.90
2022-12-09T00:23:58.313Z,43.80
2022-12-09T00:26:35.371Z,43.80
2022-12-09T00:29:09.928Z,43.70
2022-12-09T00:31:45.342Z,43.70
2022-12-09T00:34:20.363Z,43.80
2022-12-09T00:36:54.514Z,43.60
2022-12-09T00:39:28.896Z,43.70
2022-12-09T00:42:04.497Z,43.60
2022-12-09T00:44:38.590Z,44.10
2022-12-09T00:47:12.801Z,43.60
2022-12-09T00:49:46.923Z,43.50
2022-12-09T00:52:21.044Z,43.50
2022-12-09T00:54:55.347Z,43.50
2022-12-09T00:57:31.170Z,43.50
2022-12-09T01:00:07.647Z,43.60
2022-12-09T01:02:42.845Z,43.50
2022-12-09T01:05:17.247Z,43.50
2022-12-09T01:07:52.208Z,43.50
2022-12-09T01:10:26.587Z,43.50
2022-12-09T01:13:02.446Z,43.40
2022-12-09T01:15:36.695Z,43.40
2022-12-09T01:18:11.751Z,43.40
2022-12-09T01:20:45.738Z,43.50
2022-12-09T01:23:20.073Z,43.50
2022-12-09T01:25:54.003Z,43.50
2022-12-09T01:28:29.696Z,43.40
2022-12-09T01:31:08.667Z,43.40
2022-12-09T01:33:43.551Z,43.40
2022-12-09T01:36:19.705Z,43.30
2022-12-09T01:38:54.161Z,43.30
2022-12-09T01:41:28.763Z,43.30
2022-12-09T01:44:16.288Z,43.30
2022-12-09T01:46:51.457Z,43.40
2022-12-09T01:49:28.863Z,43.30
2022-12-09T01:52:08.781Z,43.30
2022-12-09T01:54:45.301Z,43.30
2022-12-09T01:57:19.329Z,43.30
2022-12-09T01:59:55.137Z,43.40
2022-12-09T02:02:30.861Z,43.20
2022-12-09T02:05:06.858Z,43.20
2022-12-09T02:07:42.392Z,43.30
2022-12-09T02:10:18.211Z,43.10
2022-12-09T02:13:23.721Z,43.20
2022-12-09T02:16:01.753Z,43.20
2022-12-09T02:18:42.797Z,43.10
2022-12-09T02:21:20.826Z,43.30
2022-12-09T02:24:05.424Z,43.10
2022-12-09T02:26:44.125Z,43.30
2022-12-09T02:29:36.194Z,43.20
2022-12-09T02:32:37.734Z,43.30
2022-12-09T02:35:23.834Z,43.40
2022-12-09T02:38:04.822Z,43.10
2022-12-09T02:40:45.530Z,43.10
2022-12-09T02:43:24.339Z,43.10
2022-12-09T02:46:02.385Z,43.10
2022-12-09T02:48:43.674Z,43.10
2022-12-09T02:51:22.565Z,43.10
2022-12-09T02:54:03.826Z,43.10
2022-12-09T02:56:42.941Z,43.70
2022-12-09T02:59:17.121Z,43.10
2022-12-09T03:02:01.503Z,43.10
2022-12-09T03:04:35.641Z,43.10
2022-12-09T03:07:19.369Z,43.10
2022-12-09T03:10:01.663Z,43.10
2022-12-09T03:12:38.624Z,43.10
2022-12-09T03:15:15.509Z,43.10
2022-12-09T03:17:50.229Z,43.10
2022-12-09T03:20:27.751Z,43.10
2022-12-09T03:23:06.443Z,43.10
2022-12-09T03:25:45.001Z,43.10
2022-12-09T03:28:24.440Z,43.10
2022-12-09T03:31:02.457Z,43.00
2022-12-09T03:33:36.451Z,43.10
2022-12-09T03:36:14.339Z,43.00
2022-12-09T03:38:51.399Z,43.00
2022-12-09T03:41:30.521Z,43.00
2022-12-09T03:44:10.337Z,43.00
2022-12-09T03:46:44.669Z,43.10
2022-12-09T03:49:19.013Z,43.10
2022-12-09T03:51:58.096Z,42.90
2022-12-09T03:54:37.365Z,42.90
2022-12-09T03:57:18.741Z,42.90
2022-12-09T03:59:56.966Z,42.90
2022-12-09T04:02:31.334Z,42.90
2022-12-09T04:05:07.097Z,42.90
2022-12-09T04:07:41.674Z,42.90
2022-12-09T04:10:16.959Z,43.10
2022-12-09T04:12:51.333Z,42.90
2022-12-09T04:15:25.233Z,42.90
2022-12-09T04:17:59.239Z,42.90
2022-12-09T04:20:33.337Z,42.90
2022-12-09T04:23:07.227Z,42.80
2022-12-09T04:25:42.283Z,42.80
2022-12-09T04:28:16.085Z,43.40
2022-12-09T04:30:49.926Z,42.90
2022-12-09T04:33:24.082Z,43.40
2022-12-09T04:36:06.285Z,42.90
2022-12-09T04:38:40.309Z,43.10
2022-12-09T04:41:16.891Z,42.70
2022-12-09T04:43:51.045Z,42.60
2022-12-09T04:46:24.893Z,42.60
2022-12-09T04:48:59.135Z,42.60
2022-12-09T04:51:39.061Z,42.70
2022-12-09T04:54:14.708Z,42.90
2022-12-09T04:56:50.545Z,43.00
2022-12-09T04:59:24.450Z,43.20
2022-12-09T05:01:58.650Z,43.40
2022-12-09T05:04:32.892Z,43.60
2022-12-09T05:07:07.007Z,43.70
2022-12-09T05:09:41.161Z,43.80
2022-12-09T05:12:16.871Z,43.90
2022-12-09T05:14:50.803Z,43.80
2022-12-09T05:17:24.848Z,44.20
2022-12-09T05:19:59.225Z,44.60
2022-12-09T05:22:33.612Z,44.30
2022-12-09T05:25:08.533Z,43.90
2022-12-09T05:27:43.996Z,43.90
2022-12-09T05:30:18.531Z,43.50
2022-12-09T05:32:53.056Z,43.10
2022-12-09T05:35:27.348Z,42.80
2022-12-09T05:38:01.744Z,42.20
2022-12-09T05:40:35.945Z,41.40
2022-12-09T05:43:11.526Z,41.00
2022-12-09T05:45:45.544Z,40.30
2022-12-09T05:48:19.614Z,39.80
2022-12-09T05:50:59.452Z,39.70
2022-12-09T05:53:34.641Z,38.90
2022-12-09T05:56:08.623Z,39.30
2022-12-09T05:58:44.466Z,38.50
2022-12-09T06:01:18.678Z,38.10
2022-12-09T06:03:54.304Z,37.60
2022-12-09T06:06:30.965Z,37.30
2022-12-09T06:09:08.732Z,37.10
2022-12-09T06:11:43.127Z,36.90
2022-12-09T06:14:18.560Z,36.50
2022-12-09T06:16:53.162Z,36.20
2022-12-09T06:19:27.528Z,35.90
2022-12-09T06:22:01.982Z,35.70
2022-12-09T06:24:37.071Z,35.50
2022-12-09T06:27:11.107Z,35.30
2022-12-09T06:29:46.776Z,35.50
2022-12-09T06:32:21.057Z,35.70
2022-12-09T06:34:55.266Z,35.40
2022-12-09T06:37:29.802Z,36.00
2022-12-09T06:40:04.005Z,36.20
2022-12-09T06:42:38.929Z,36.40
2022-12-09T06:45:14.929Z,36.70
2022-12-09T06:47:50.260Z,36.70
2022-12-09T06:50:25.056Z,37.20
2022-12-09T06:52:59.628Z,37.30
2022-12-09T06:55:33.664Z,37.30
2022-12-09T06:58:08.334Z,37.50
2022-12-09T07:00:43.891Z,38.00
2022-12-09T07:03:18.217Z,37.70
2022-12-09T07:05:52.590Z,38.10
2022-12-09T07:08:27.098Z,37.90
2022-12-09T07:11:01.329Z,37.80
2022-12-09T07:13:36.271Z,37.90
2022-12-09T07:16:11.940Z,38.20
2022-12-09T07:18:46.358Z,38.20
2022-12-09T07:21:22.247Z,38.30
2022-12-09T07:23:56.586Z,38.20
2022-12-09T07:26:33.651Z,38.20
2022-12-09T07:29:08.799Z,38.30
2022-12-09T07:31:45.288Z,38.50
2022-12-09T07:34:19.581Z,38.40
2022-12-09T07:36:53.984Z,38.80
2022-12-09T07:39:28.623Z,38.50
2022-12-09T07:42:03.042Z,38.30
2022-12-09T07:44:38.258Z,38.10
2022-12-09T07:47:14.107Z,38.10
2022-12-09T07:49:48.479Z,38.30
2022-12-09T07:52:22.851Z,38.10
2022-12-09T07:54:59.498Z,38.20
2022-12-09T07:57:34.853Z,38.20
2022-12-09T08:00:10.745Z,38.50
2022-12-09T08:02:49.450Z,38.60
2022-12-09T08:05:23.784Z,38.50
2022-12-09T08:07:58.002Z,38.70
2022-12-09T08:10:32.554Z,38.90
2022-12-09T08:13:06.744Z,39.10
2022-12-09T08:15:40.713Z,39.10
2022-12-09T08:18:16.514Z,39.00
2022-12-09T08:20:50.423Z,38.80
2022-12-09T08:23:24.192Z,39.10
2022-12-09T08:25:58.747Z,40.20
2022-12-09T08:28:33.336Z,39.20
2022-12-09T08:31:12.521Z,39.00
2022-12-09T08:33:48.197Z,39.10
2022-12-09T08:36:24.813Z,38.60
2022-12-09T08:39:01.453Z,38.50
2022-12-09T08:41:38.665Z,39.10
2022-12-09T08:44:15.481Z,38.70
2022-12-09T08:46:51.758Z,38.50
2022-12-09T08:49:28.287Z,38.60
2022-12-09T08:52:02.574Z,38.30
2022-12-09T08:54:36.530Z,38.30
2022-12-09T08:57:10.706Z,37.90
2022-12-09T08:59:45.505Z,38.10
2022-12-09T09:02:20.069Z,38.30
2022-12-09T09:04:56.908Z,38.50
2022-12-09T09:07:32.424Z,37.90
2022-12-09T09:10:08.699Z,37.20
2022-12-09T09:12:44.049Z,37.50
2022-12-09T09:15:18.813Z,37.40
2022-12-09T09:17:54.211Z,37.40
2022-12-09T09:20:29.659Z,37.60
2022-12-09T09:23:04.248Z,36.80
2022-12-09T09:25:46.323Z,37.10
2022-12-09T09:28:21.707Z,37.50
2022-12-09T09:31:03.402Z,37.30
2022-12-09T09:33:38.112Z,37.50
2022-12-09T09:36:16.312Z,37.60
2022-12-09T09:38:51.539Z,38.00
2022-12-09T09:41:35.016Z,37.10
2022-12-09T09:44:18.218Z,37.20
2022-12-09T09:46:54.571Z,37.30
2022-12-09T09:49:35.665Z,36.60
2022-12-09T09:52:15.753Z,37.00
2022-12-09T09:54:50.153Z,37.10
2022-12-09T09:57:30.009Z,37.20
2022-12-09T10:00:21.284Z,36.90
2022-12-09T10:03:01.192Z,37.30
2022-12-09T10:05:38.652Z,37.10
2022-12-09T10:08:33.876Z,36.40
2022-12-09T10:11:18.160Z,36.00
2022-12-09T10:14:00.813Z,36.50
2022-12-09T10:16:43.933Z,36.60
2022-12-09T10:19:27.522Z,36.40
2022-12-09T10:22:11.945Z,36.20
2022-12-09T10:24:51.151Z,36.50
2022-12-09T10:27:32.193Z,36.50
2022-12-09T10:30:11.860Z,36.10
2022-12-09T10:32:46.713Z,36.40
2022-12-09T10:35:22.850Z,36.60
2022-12-09T10:38:07.526Z,36.50
2022-12-09T10:40:55.772Z,36.70
2022-12-09T10:43:37.453Z,37.00
2022-12-09T10:46:21.685Z,37.10
2022-12-09T10:49:02.286Z,36.90
2022-12-09T10:51:37.428Z,36.50
2022-12-09T10:54:21.861Z,37.30
2022-12-09T10:57:07.357Z,37.80
2022-12-09T10:59:43.159Z,38.20
2022-12-09T11:02:22.017Z,37.40
2022-12-09T11:04:56.993Z,37.60
2022-12-09T11:07:32.187Z,37.50
2022-12-09T11:10:18.472Z,37.60
2022-12-09T11:12:58.543Z,37.40
2022-12-09T11:15:39.157Z,37.60
2022-12-09T11:18:20.505Z,37.60
2022-12-09T11:21:00.926Z,37.80
2022-12-09T11:23:36.041Z,37.80
2022-12-09T11:26:25.261Z,37.80
2022-12-09T11:29:06.906Z,38.40
2022-12-09T11:31:42.652Z,38.00
2022-12-09T11:34:20.734Z,37.90
2022-12-09T11:36:56.746Z,37.90
2022-12-09T11:39:33.945Z,37.80
2022-12-09T11:42:18.911Z,37.90
2022-12-09T11:44:59.298Z,37.90
2022-12-09T11:50:32.773Z,37.90
2022-12-09T11:53:26.244Z,37.80
2022-12-09T11:56:04.941Z,37.80
2022-12-09T11:58:43.586Z,38.10
2022-12-09T12:01:23.471Z,38.00
2022-12-09T12:04:01.742Z,38.10
2022-12-09T12:06:43.473Z,38.10
2022-12-09T12:09:22.749Z,38.00
2022-12-09T12:12:06.103Z,38.00
2022-12-09T12:14:44.145Z,38.20
2022-12-09T12:17:26.135Z,38.20
2022-12-09T12:20:00.545Z,38.30
2022-12-09T12:22:55.034Z,38.40
2022-12-09T12:25:40.142Z,38.30
2022-12-09T12:28:32.010Z,38.40
2022-12-09T12:31:16.794Z,38.60
2022-12-09T12:37:06.753Z,38.30
2022-12-09T12:39:52.631Z,38.90
2022-12-09T12:42:36.643Z,38.60
2022-12-09T12:45:43.822Z,38.40
2022-12-09T12:48:25.783Z,38.20
2022-12-09T12:51:13.823Z,38.20
2022-12-09T12:53:57.486Z,38.20
2022-12-09T12:56:39.175Z,38.80
2022-12-09T12:59:20.262Z,39.50
2022-12-09T13:01:57.638Z,40.60
2022-12-09T13:04:46.647Z,41.00
2022-12-09T13:07:30.802Z,41.90
2022-12-09T13:10:07.864Z,43.30
2022-12-09T13:12:57.056Z,44.70
2022-12-09T13:15:35.052Z,44.50
2022-12-09T13:18:14.377Z,45.30
2022-12-09T13:20:51.176Z,45.00
2022-12-09T13:23:35.696Z,45.30
2022-12-09T13:26:21.363Z,45.00
2022-12-09T13:29:04.284Z,44.80
2022-12-09T13:31:43.690Z,44.40
2022-12-09T13:34:27.148Z,43.90
2022-12-09T13:37:01.146Z,43.40
2022-12-09T13:39:59.182Z,43.00
2022-12-09T13:43:01.545Z,42.70
2022-12-09T13:45:37.313Z,42.00
2022-12-09T13:48:46.591Z,41.80
2022-12-09T13:51:21.774Z,41.80
2022-12-09T13:54:03.727Z,41.20
2022-12-09T13:56:39.223Z,41.10
2022-12-09T13:59:40.224Z,40.90
2022-12-09T14:02:26.081Z,41.30
2022-12-09T14:05:08.477Z,40.60
2022-12-09T14:07:50.353Z,40.00
2022-12-09T14:10:39.764Z,40.00
2022-12-09T14:13:27.350Z,40.50
2022-12-09T14:16:33.535Z,39.90
2022-12-09T14:19:51.735Z,39.70
2022-12-09T14:22:38.116Z,39.90
2022-12-09T14:25:51.442Z,39.80
2022-12-09T14:29:01.196Z,40.20
2022-12-09T14:31:51.615Z,40.20
2022-12-09T14:34:34.931Z,39.90
2022-12-09T14:37:36.164Z,40.00
2022-12-09T14:40:45.347Z,40.30
2022-12-09T14:43:55.813Z,40.20
2022-12-09T14:46:33.196Z,39.70
2022-12-09T14:49:16.600Z,40.10
2022-12-09T14:51:52.160Z,39.60
2022-12-09T14:54:29.617Z,39.70
2022-12-09T14:57:06.979Z,39.90
2022-12-09T14:59:50.391Z,40.40
2022-12-09T15:02:27.108Z,40.10
2022-12-09T15:05:03.091Z,39.90
2022-12-09T15:07:37.168Z,39.70
2022-12-09T15:10:19.160Z,39.80
2022-12-09T15:12:55.745Z,40.10
2022-12-09T15:15:34.201Z,39.70
2022-12-09T15:18:15.452Z,39.70
2022-12-09T15:20:52.302Z,39.80
2022-12-09T15:23:32.351Z,39.60
2022-12-09T15:26:07.998Z,39.80
2022-12-09T15:28:48.807Z,39.70
2022-12-09T15:31:27.083Z,39.80
2022-12-09T15:34:02.542Z,39.60
2022-12-09T15:36:41.429Z,39.70
2022-12-09T15:39:22.329Z,39.80
2022-12-09T15:42:09.733Z,39.70
2022-12-09T15:44:50.555Z,39.70
2022-12-09T15:47:30.675Z,39.60
2022-12-09T15:50:15.118Z,39.60
2022-12-09T15:52:53.376Z,39.70
2022-12-09T15:55:31.217Z,39.80
2022-12-09T15:58:07.904Z,39.70
2022-12-09T16:00:47.175Z,39.70
2022-12-09T16:03:27.461Z,39.70
2022-12-09T16:06:03.885Z,39.60
2022-12-09T16:08:40.502Z,39.70
2022-12-09T16:11:15.477Z,39.70
2022-12-09T16:13:59.778Z,39.50
2022-12-09T16:16:43.026Z,40.30
2022-12-09T16:19:33.913Z,40.20
2022-12-09T16:22:16.618Z,40.50
2022-12-09T16:27:49.812Z,38.90
2022-12-09T16:30:25.798Z,39.30
2022-12-09T16:33:02.674Z,38.50
2022-12-09T16:35:42.978Z,37.70
2022-12-09T16:38:20.098Z,37.60
2022-12-09T16:41:13.495Z,37.50
2022-12-09T16:43:58.746Z,38.10
2022-12-09T16:46:50.413Z,36.90
2022-12-09T16:49:24.301Z,37.40
2022-12-09T16:51:59.724Z,36.20
2022-12-09T16:54:34.127Z,36.40
2022-12-09T16:57:08.330Z,35.90
2022-12-09T16:59:42.529Z,35.70
2022-12-09T17:02:22.601Z,35.40
2022-12-09T17:04:56.604Z,35.50
2022-12-09T17:07:32.032Z,35.10
2022-12-09T17:10:06.610Z,34.70
2022-12-09T17:12:40.832Z,34.70
2022-12-09T17:15:17.174Z,34.50
2022-12-09T17:17:51.463Z,34.40
2022-12-09T17:20:25.592Z,34.70
2022-12-09T17:23:01.198Z,34.40
2022-12-09T17:25:35.435Z,35.60
2022-12-09T17:28:09.369Z,35.40
2022-12-09T17:30:43.442Z,35.30
2022-12-09T17:33:17.559Z,35.60
2022-12-09T17:35:51.605Z,35.70
2022-12-09T17:38:29.033Z,35.90
2022-12-09T17:41:06.173Z,36.00
2022-12-09T17:43:40.524Z,36.30
2022-12-09T17:46:15.264Z,36.20
2022-12-09T17:48:49.204Z,36.30
2022-12-09T17:51:23.238Z,36.30
2022-12-09T17:53:58.902Z,36.40
2022-12-09T17:56:33.303Z,36.50
2022-12-09T17:59:09.896Z,36.60
2022-12-09T18:01:46.383Z,36.60
2022-12-09T18:04:20.262Z,36.70
2022-12-09T18:06:54.273Z,36.80
2022-12-09T18:09:29.626Z,36.90
2022-12-09T18:12:03.606Z,36.90
2022-12-09T18:14:37.535Z,37.00
2022-12-09T18:17:11.666Z,36.90
2022-12-09T18:19:45.773Z,37.00
2022-12-09T18:22:19.805Z,37.10
2022-12-09T18:24:55.319Z,37.20
2022-12-09T18:27:29.344Z,37.20
2022-12-09T18:30:03.217Z,37.30
2022-12-09T18:32:37.214Z,37.50
2022-12-09T18:35:13.938Z,37.40
2022-12-09T18:37:48.044Z,37.60
2022-12-09T18:40:23.505Z,37.70
2022-12-09T18:42:57.497Z,37.90
2022-12-09T18:45:31.592Z,37.90
2022-12-09T18:48:05.852Z,38.10
2022-12-09T18:50:39.869Z,38.40
2022-12-09T18:53:13.909Z,39.60
2022-12-09T18:55:49.320Z,39.00
2022-12-09T18:58:42.855Z,39.10
2022-12-09T19:01:20.637Z,39.00
2022-12-09T19:03:57.140Z,39.10
2022-12-09T19:06:32.479Z,39.20
2022-12-09T19:09:08.618Z,39.30
2022-12-09T19:11:46.271Z,39.30
2022-12-09T19:14:22.297Z,39.40
2022-12-09T19:16:56.437Z,39.20
2022-12-09T19:19:30.872Z,39.10
2022-12-09T19:22:06.492Z,39.70
2022-12-09T19:24:43.162Z,39.90
2022-12-09T19:27:18.855Z,39.90
2022-12-09T19:29:52.966Z,40.00
2022-12-09T19:32:53.098Z,40.10
2022-12-09T19:35:22.480Z,40.10
2022-12-09T19:38:01.126Z,40.30
2022-12-09T19:40:35.587Z,40.60
2022-12-09T19:43:11.150Z,40.50
2022-12-09T19:45:45.150Z,40.90
2022-12-09T19:48:19.117Z,41.10
2022-12-09T19:50:53.126Z,41.10
2022-12-09T19:53:26.963Z,41.30
2022-12-09T19:56:02.184Z,41.50
2022-12-09T19:58:39.146Z,41.50
2022-12-09T20:01:15.295Z,41.40
2022-12-09T20:03:51.116Z,41.30
2022-12-09T20:06:25.793Z,41.30
2022-12-09T20:09:02.280Z,42.10
2022-12-09T20:11:37.233Z,42.40
2022-12-09T20:14:15.069Z,42.70
2022-12-09T20:16:49.021Z,42.70
2022-12-09T20:19:23.873Z,42.50
2022-12-09T20:21:58.182Z,42.90
2022-12-09T20:24:32.091Z,42.80
2022-12-09T20:27:06.270Z,43.20
2022-12-09T20:29:41.658Z,43.10
2022-12-09T20:32:15.560Z,42.80
2022-12-09T20:34:51.542Z,42.70
2022-12-09T20:37:25.764Z,42.40
2022-12-09T20:39:59.703Z,41.80
2022-12-09T20:42:33.896Z,41.20
2022-12-09T20:45:10.948Z,41.00
2022-12-09T20:47:45.026Z,41.60
2022-12-09T20:50:19.019Z,41.60
2022-12-09T20:52:53.041Z,41.40
2022-12-09T20:55:27.038Z,41.50
2022-12-09T20:58:01.013Z,41.90
2022-12-09T21:00:36.364Z,42.00
2022-12-09T21:03:10.480Z,42.00
2022-12-09T21:05:44.472Z,42.50
2022-12-09T21:08:18.543Z,42.80
2022-12-09T21:10:52.583Z,43.00
2022-12-09T21:13:26.528Z,43.20
2022-12-09T21:16:06.655Z,43.30
2022-12-09T21:18:40.757Z,43.60
2022-12-09T21:21:15.180Z,43.70
2022-12-09T21:23:50.424Z,44.00
2022-12-09T21:26:26.218Z,45.10
2022-12-09T21:29:01.946Z,45.50
2022-12-09T21:31:39.770Z,46.10
2022-12-09T21:34:13.755Z,46.60
2022-12-09T21:36:48.374Z,46.40
2022-12-09T21:39:22.310Z,46.30
2022-12-09T21:41:56.664Z,46.60
2022-12-09T21:44:30.864Z,47.20
2022-12-09T21:47:06.225Z,47.30
2022-12-09T21:49:40.503Z,47.20
2022-12-09T21:52:14.470Z,47.10
2022-12-09T21:54:55.205Z,47.10
2022-12-09T21:57:29.473Z,47.20
2022-12-09T22:00:03.395Z,47.30
2022-12-09T22:02:41.481Z,47.20
2022-12-09T22:05:15.772Z,47.20
2022-12-09T22:07:51.152Z,47.20
2022-12-09T22:10:25.310Z,47.20
2022-12-09T22:12:59.202Z,47.20
2022-12-09T22:15:33.682Z,47.10
2022-12-09T22:18:09.188Z,47.20
2022-12-09T22:21:22.875Z,47.00
2022-12-09T22:23:39.354Z,47.00
2022-12-09T22:26:19.207Z,47.00
2022-12-09T22:28:53.417Z,47.00
2022-12-09T22:31:29.628Z,47.00
2022-12-09T22:34:08.254Z,46.90
2022-12-09T22:36:42.445Z,47.00
2022-12-09T22:39:18.212Z,47.00
2022-12-09T22:41:52.633Z,47.00
2022-12-09T22:44:26.572Z,47.10
2022-12-09T22:47:00.449Z,47.70
2022-12-09T22:49:36.159Z,47.00
2022-12-09T22:52:10.084Z,47.10
2022-12-09T22:54:43.716Z,47.10
2022-12-09T22:57:17.682Z,47.00
2022-12-09T22:59:51.733Z,47.10
2022-12-09T23:02:25.709Z,47.10
2022-12-09T23:05:01.137Z,47.20
2022-12-09T23:07:35.327Z,47.20
2022-12-09T23:10:14.424Z,47.10
2022-12-09T23:12:48.322Z,47.50
2022-12-09T23:15:22.220Z,47.20
2022-12-09T23:17:56.327Z,47.00
2022-12-09T23:20:31.687Z,47.30
2022-12-09T23:23:08.495Z,48.20
2022-12-09T23:25:42.421Z,48.60
2022-12-09T23:28:16.238Z,49.00
2022-12-09T23:30:49.813Z,49.20
2022-12-09T23:33:23.975Z,49.40
2022-12-09T23:35:59.375Z,49.30
2022-12-09T23:38:33.161Z,49.50
2022-12-09T23:41:06.847Z,49.60
2022-12-09T23:43:41.098Z,49.70
2022-12-09T23:46:18.423Z,49.60
2022-12-09T23:48:54.162Z,49.70
2022-12-09T23:51:31.635Z,49.90
2022-12-09T23:54:10.044Z,49.90
2022-12-09T23:56:49.709Z,50.10
2022-12-09T23:59:24.587Z,50.10
